createdAt,value
2022-11-17T00:02:00.264Z,7.99
2022-11-17T00:04:32.702Z,8.02
2022-11-17T00:07:05.205Z,8.01
2022-11-17T00:09:37.780Z,7.96
2022-11-17T00:12:32.567Z,8.01
2022-11-17T00:15:05.038Z,7.88
2022-11-17T00:17:37.186Z,7.81
2022-11-17T00:20:30.440Z,7.95
2022-11-17T00:23:02.638Z,7.96
2022-11-17T00:25:35.793Z,8.08
2022-11-17T00:28:07.985Z,8.09
2022-11-17T00:30:57.977Z,7.94
2022-11-17T00:33:47.968Z,7.98
2022-11-17T00:36:20.069Z,7.91
2022-11-17T00:38:52.661Z,7.88
2022-11-17T00:41:24.844Z,7.93
2022-11-17T00:43:56.858Z,7.81
2022-11-17T00:46:29.257Z,7.67
2022-11-17T00:49:01.745Z,7.78
2022-11-17T00:51:36.206Z,7.75
2022-11-17T00:54:09.539Z,7.75
2022-11-17T00:56:41.881Z,7.84
2022-11-17T00:59:14.042Z,8.05
2022-11-17T01:01:47.303Z,7.96
2022-11-17T01:04:19.645Z,7.90
2022-11-17T01:06:52.238Z,8.05
2022-11-17T01:09:25.925Z,8.14
2022-11-17T01:11:58.243Z,8.01
2022-11-17T01:14:32.727Z,8.04
2022-11-17T01:17:04.832Z,7.98
2022-11-17T01:19:36.959Z,8.05
2022-11-17T01:22:09.087Z,8.14
2022-11-17T01:24:41.375Z,8.19
2022-11-17T01:27:13.541Z,8.14
2022-11-17T01:29:45.534Z,8.19
2022-11-17T01:32:17.590Z,8.22
2022-11-17T01:34:50.246Z,8.17
2022-11-17T01:37:22.334Z,8.26
2022-11-17T01:39:54.674Z,8.23
2022-11-17T01:42:29.684Z,8.29
2022-11-17T01:45:05.366Z,8.16
2022-11-17T01:47:43.799Z,8.19
2022-11-17T01:50:29.498Z,8.26
2022-11-17T01:53:05.027Z,8.36
2022-11-17T01:55:39.910Z,8.34
2022-11-17T01:58:11.798Z,8.21
2022-11-17T02:00:43.898Z,8.08
2022-11-17T02:03:16.634Z,8.22
2022-11-17T02:05:55.276Z,8.30
2022-11-17T02:08:30.054Z,7.99
2022-11-17T02:11:04.988Z,8.14
2022-11-17T02:13:37.114Z,8.00
2022-11-17T02:16:14.094Z,8.04
2022-11-17T02:18:47.707Z,8.00
2022-11-17T02:21:42.846Z,7.91
2022-11-17T02:24:46.551Z,7.83
2022-11-17T02:27:51.250Z,7.99
2022-11-17T02:30:25.535Z,8.09
2022-11-17T02:33:04.889Z,8.12
2022-11-17T02:35:48.671Z,8.02
2022-11-17T02:38:29.588Z,8.09
2022-11-17T02:41:17.521Z,8.08
2022-11-17T02:44:06.808Z,8.08
2022-11-17T02:46:46.320Z,7.93
2022-11-17T02:49:25.484Z,7.87
2022-11-17T02:52:00.345Z,7.92
2022-11-17T02:54:34.459Z,7.95
2022-11-17T02:57:06.851Z,8.00
2022-11-17T02:59:44.106Z,7.99
2022-11-17T03:02:47.036Z,7.69
2022-11-17T03:05:26.779Z,7.91
2022-11-17T03:08:19.071Z,7.98
2022-11-17T03:10:58.367Z,7.90
2022-11-17T03:13:40.798Z,8.04
2022-11-17T03:16:26.531Z,8.09
2022-11-17T03:19:07.504Z,8.03
2022-11-17T03:21:46.324Z,8.10
2022-11-17T03:24:22.772Z,8.13
2022-11-17T03:26:58.132Z,8.12
2022-11-17T03:29:33.101Z,8.08
2022-11-17T03:32:08.231Z,8.10
2022-11-17T03:34:47.073Z,7.99
2022-11-17T03:37:21.029Z,8.13
2022-11-17T03:39:56.714Z,8.06
2022-11-17T03:42:31.988Z,7.89
2022-11-17T03:45:10.276Z,7.96
2022-11-17T03:47:43.722Z,8.04
2022-11-17T03:50:20.032Z,8.14
2022-11-17T03:52:53.046Z,8.02
2022-11-17T03:55:34.886Z,8.02
2022-11-17T03:58:10.803Z,8.05
2022-11-17T04:00:44.601Z,8.04
2022-11-17T04:03:17.640Z,7.88
2022-11-17T04:05:49.820Z,7.77
2022-11-17T04:08:24.123Z,7.88
2022-11-17T04:11:13.637Z,8.00
2022-11-17T04:14:03.539Z,7.86
2022-11-17T04:16:35.610Z,7.95
2022-11-17T04:19:08.092Z,8.00
2022-11-17T04:21:40.339Z,7.87
2022-11-17T04:24:12.660Z,7.87
2022-11-17T04:27:02.173Z,7.90
2022-11-17T04:29:34.991Z,7.75
2022-11-17T04:32:07.158Z,7.88
2022-11-17T04:34:41.733Z,7.79
2022-11-17T04:37:17.466Z,7.72
2022-11-17T04:39:50.359Z,7.83
2022-11-17T04:42:22.497Z,7.90
2022-11-17T04:44:54.637Z,7.93
2022-11-17T04:47:26.707Z,7.81
2022-11-17T04:49:59.205Z,7.86
2022-11-17T04:52:31.196Z,7.86
2022-11-17T04:55:03.218Z,7.81
2022-11-17T04:57:35.205Z,7.69
2022-11-17T05:00:09.854Z,7.75
2022-11-17T05:02:40.464Z,7.83
2022-11-17T05:05:12.830Z,7.66
2022-11-17T05:07:45.176Z,7.75
2022-11-17T05:10:37.598Z,7.85
2022-11-17T05:13:26.559Z,7.83
2022-11-17T05:16:18.140Z,7.92
2022-11-17T05:18:50.308Z,7.88
2022-11-17T05:21:22.725Z,7.74
2022-11-17T05:23:58.366Z,7.78
2022-11-17T05:26:34.332Z,7.82
2022-11-17T05:29:07.874Z,7.81
2022-11-17T05:31:40.772Z,7.84
2022-11-17T05:34:15.109Z,7.67
2022-11-17T05:36:47.583Z,7.71
2022-11-17T05:39:19.605Z,7.77
2022-11-17T05:41:51.682Z,7.79
2022-11-17T05:44:23.659Z,7.76
2022-11-17T05:46:59.675Z,7.75
2022-11-17T05:49:31.864Z,7.75
2022-11-17T05:52:04.286Z,7.78
2022-11-17T05:54:36.413Z,7.72
2022-11-17T05:57:12.367Z,7.64
2022-11-17T05:59:48.065Z,7.65
2022-11-17T06:02:26.929Z,7.65
2022-11-17T06:04:59.166Z,7.67
2022-11-17T06:07:31.480Z,7.72
2022-11-17T06:10:03.780Z,7.62
2022-11-17T06:12:36.028Z,7.59
2022-11-17T06:15:09.805Z,7.77
2022-11-17T06:17:47.383Z,7.67
2022-11-17T06:20:24.290Z,7.84
2022-11-17T06:23:06.210Z,7.85
2022-11-17T06:25:41.812Z,7.87
2022-11-17T06:28:18.240Z,7.94
2022-11-17T06:30:51.135Z,7.76
2022-11-17T06:33:23.517Z,7.71
2022-11-17T06:35:55.916Z,7.86
2022-11-17T06:38:29.501Z,7.81
2022-11-17T06:41:03.547Z,7.79
2022-11-17T06:43:37.500Z,7.80
2022-11-17T06:46:09.993Z,7.88
2022-11-17T06:48:42.154Z,7.84
2022-11-17T06:51:14.591Z,7.86
2022-11-17T06:53:47.310Z,7.73
2022-11-17T06:56:22.181Z,7.76
2022-11-17T06:58:55.981Z,7.53
2022-11-17T07:01:28.380Z,7.60
2022-11-17T07:04:00.492Z,7.70
2022-11-17T07:06:33.276Z,7.71
2022-11-17T07:09:05.696Z,7.73
2022-11-17T07:11:38.151Z,7.72
2022-11-17T07:14:10.413Z,7.79
2022-11-17T07:16:44.338Z,7.82
2022-11-17T07:19:16.454Z,7.84
2022-11-17T07:21:48.551Z,7.89
2022-11-17T07:24:21.395Z,7.84
2022-11-17T07:26:53.835Z,7.71
2022-11-17T07:29:26.064Z,7.68
2022-11-17T07:31:58.082Z,7.77
2022-11-17T07:34:30.254Z,7.80
2022-11-17T07:37:02.345Z,7.85
2022-11-17T07:39:34.551Z,7.88
2022-11-17T07:42:07.238Z,7.85
2022-11-17T07:44:39.819Z,7.80
2022-11-17T07:47:11.826Z,7.81
2022-11-17T07:49:43.889Z,7.76
2022-11-17T07:52:16.097Z,7.79
2022-11-17T07:54:48.615Z,7.78
2022-11-17T07:57:21.631Z,7.72
2022-11-17T07:59:53.688Z,7.74
2022-11-17T08:02:25.846Z,7.68
2022-11-17T08:04:58.055Z,7.49
2022-11-17T08:07:30.171Z,7.61
2022-11-17T08:10:02.371Z,7.60
2022-11-17T08:12:34.543Z,7.75
2022-11-17T08:15:08.017Z,7.78
2022-11-17T08:17:40.073Z,7.76
2022-11-17T08:20:13.799Z,7.83
2022-11-17T08:22:46.727Z,7.87
2022-11-17T08:25:19.761Z,7.87
2022-11-17T08:27:55.066Z,7.76
2022-11-17T08:30:28.755Z,7.73
2022-11-17T08:33:00.878Z,7.65
2022-11-17T08:35:37.340Z,7.68
2022-11-17T08:38:11.761Z,7.79
2022-11-17T08:40:43.949Z,7.75
2022-11-17T08:43:15.969Z,7.79
2022-11-17T08:45:48.112Z,7.70
2022-11-17T08:48:20.211Z,7.76
2022-11-17T08:50:52.946Z,7.70
2022-11-17T08:53:25.469Z,7.78
2022-11-17T08:55:58.034Z,7.70
2022-11-17T08:58:30.126Z,7.76
2022-11-17T09:01:05.360Z,7.80
2022-11-17T09:03:37.738Z,7.68
2022-11-17T09:06:10.110Z,7.68
2022-11-17T09:08:46.221Z,7.58
2022-11-17T09:11:28.166Z,7.63
2022-11-17T09:14:00.285Z,7.71
2022-11-17T09:16:32.485Z,7.66
2022-11-17T09:19:04.667Z,7.62
2022-11-17T09:21:36.743Z,7.65
2022-11-17T09:24:10.056Z,7.77
2022-11-17T09:26:43.393Z,7.77
2022-11-17T09:29:15.497Z,7.84
2022-11-17T09:31:47.758Z,7.90
2022-11-17T09:34:19.961Z,7.86
2022-11-17T09:36:52.113Z,7.87
2022-11-17T09:39:24.109Z,7.92
2022-11-17T09:41:58.225Z,7.92
2022-11-17T09:44:39.915Z,7.90
2022-11-17T09:47:20.445Z,7.88
2022-11-17T09:49:59.607Z,7.84
2022-11-17T09:52:36.689Z,7.79
2022-11-17T09:55:31.138Z,7.89
2022-11-17T09:58:19.636Z,7.77
2022-11-17T10:00:52.949Z,7.67
2022-11-17T10:03:29.551Z,7.63
2022-11-17T10:06:05.534Z,7.66
2022-11-17T10:08:41.917Z,7.80
2022-11-17T10:11:35.162Z,7.87
2022-11-17T10:14:17.614Z,7.92
2022-11-17T10:16:55.400Z,7.90
2022-11-17T10:19:29.707Z,7.88
2022-11-17T10:22:21.106Z,8.00
2022-11-17T10:24:58.001Z,8.02
2022-11-17T10:27:31.954Z,7.98
2022-11-17T10:30:07.214Z,7.95
2022-11-17T10:32:49.478Z,8.04
2022-11-17T10:35:24.119Z,7.97
2022-11-17T10:37:58.866Z,7.84
2022-11-17T10:40:31.331Z,7.81
2022-11-17T10:43:22.087Z,7.83
2022-11-17T10:45:57.251Z,7.88
2022-11-17T10:48:32.083Z,7.88
2022-11-17T10:51:03.706Z,7.98
2022-11-17T10:53:44.906Z,7.97
2022-11-17T10:56:21.845Z,7.97
2022-11-17T10:59:05.413Z,8.05
2022-11-17T11:01:40.132Z,8.01
2022-11-17T11:04:34.716Z,7.89
2022-11-17T11:07:12.768Z,7.80
2022-11-17T11:09:50.996Z,7.79
2022-11-17T11:12:32.535Z,7.80
2022-11-17T11:15:26.321Z,7.68
2022-11-17T11:17:59.704Z,7.66
2022-11-17T11:20:43.651Z,7.84
2022-11-17T11:23:23.914Z,7.85
2022-11-17T11:26:09.194Z,7.87
2022-11-17T11:28:52.793Z,7.70
2022-11-17T11:31:34.567Z,7.62
2022-11-17T11:34:24.854Z,7.64
2022-11-17T11:37:02.690Z,7.51
2022-11-17T11:39:47.980Z,7.50
2022-11-17T11:42:35.014Z,7.64
2022-11-17T11:45:18.690Z,7.69
2022-11-17T11:48:08.262Z,7.85
2022-11-17T11:50:50.050Z,7.76
2022-11-17T11:53:29.143Z,7.78
2022-11-17T11:56:13.717Z,7.75
2022-11-17T11:58:52.367Z,7.66
2022-11-17T12:01:25.673Z,7.77
2022-11-17T12:04:14.552Z,7.84
2022-11-17T12:06:54.156Z,7.71
2022-11-17T12:09:57.336Z,7.75
2022-11-17T12:12:33.810Z,7.75
2022-11-17T12:15:35.102Z,7.81
2022-11-17T12:18:14.676Z,7.81
2022-11-17T12:20:55.264Z,7.92
2022-11-17T12:23:50.834Z,7.87
2022-11-17T12:26:29.292Z,7.83
2022-11-17T12:29:34.031Z,7.80
2022-11-17T12:32:06.064Z,7.72
2022-11-17T12:34:38.703Z,7.75
2022-11-17T12:37:30.182Z,7.72
2022-11-17T12:40:04.931Z,7.75
2022-11-17T12:42:37.827Z,7.73
2022-11-17T12:45:11.478Z,7.68
2022-11-17T12:47:54.805Z,7.73
2022-11-17T12:51:04.443Z,7.69
2022-11-17T12:53:54.728Z,7.61
2022-11-17T12:56:53.127Z,7.61
2022-11-17T12:59:52.148Z,7.63
2022-11-17T13:02:38.646Z,7.67
2022-11-17T13:05:17.629Z,7.61
2022-11-17T13:07:50.239Z,7.61
2022-11-17T13:10:30.832Z,7.66
2022-11-17T13:13:18.938Z,7.67
2022-11-17T13:15:54.265Z,7.71
2022-11-17T13:18:32.965Z,7.79
2022-11-17T13:21:05.904Z,7.72
2022-11-17T13:23:44.004Z,7.68
2022-11-17T13:26:23.944Z,7.44
2022-11-17T13:29:07.699Z,7.49
2022-11-17T13:31:39.821Z,7.60
2022-11-17T13:34:18.980Z,7.55
2022-11-17T13:36:58.186Z,7.44
2022-11-17T13:39:31.189Z,7.55
2022-11-17T13:42:04.250Z,7.63
2022-11-17T13:44:36.627Z,7.66
2022-11-17T13:47:23.095Z,7.50
2022-11-17T13:49:54.947Z,7.55
2022-11-17T13:52:41.994Z,7.48
2022-11-17T13:55:21.606Z,7.42
2022-11-17T13:58:01.866Z,7.33
2022-11-17T14:00:34.655Z,7.41
2022-11-17T14:03:29.447Z,7.48
2022-11-17T14:06:01.240Z,7.49
2022-11-17T14:08:34.591Z,7.51
2022-11-17T14:11:23.939Z,7.54
2022-11-17T14:13:58.900Z,7.58
2022-11-17T14:16:34.704Z,7.54
2022-11-17T14:19:26.441Z,7.57
2022-11-17T14:22:04.837Z,7.57
2022-11-17T14:24:37.607Z,7.46
2022-11-17T14:27:15.727Z,7.41
2022-11-17T14:29:47.441Z,7.50
2022-11-17T14:32:19.200Z,7.49
2022-11-17T14:34:51.296Z,7.46
2022-11-17T14:37:23.017Z,7.36
2022-11-17T14:39:54.755Z,7.37
2022-11-17T14:42:28.343Z,7.43
2022-11-17T14:45:02.012Z,7.31
2022-11-17T14:47:33.818Z,7.36
2022-11-17T14:50:06.458Z,7.34
2022-11-17T14:52:39.667Z,7.18
2022-11-17T14:55:12.354Z,7.16
2022-11-17T14:57:44.109Z,7.18
2022-11-17T15:00:20.551Z,7.14
2022-11-17T15:02:52.982Z,7.17
2022-11-17T15:05:24.681Z,7.12
2022-11-17T15:07:57.965Z,7.10
2022-11-17T15:10:29.739Z,6.90
2022-11-17T15:13:02.003Z,6.79
2022-11-17T15:15:33.694Z,6.88
2022-11-17T15:18:05.677Z,6.88
2022-11-17T15:20:37.445Z,6.74
2022-11-17T15:23:09.269Z,6.85
2022-11-17T15:25:41.269Z,6.70
2022-11-17T15:28:18.907Z,6.56
2022-11-17T15:30:53.483Z,6.56
2022-11-17T15:33:25.474Z,6.66
2022-11-17T15:36:05.262Z,6.57
2022-11-17T15:38:37.442Z,6.53
2022-11-17T15:41:11.304Z,6.59
2022-11-17T15:43:45.051Z,6.65
2022-11-17T15:46:18.750Z,6.70
2022-11-17T15:48:53.949Z,6.72
2022-11-17T15:51:28.127Z,6.70
2022-11-17T15:54:01.394Z,6.72
2022-11-17T15:56:36.903Z,6.71
2022-11-17T15:59:11.826Z,6.77
2022-11-17T16:01:43.965Z,6.71
2022-11-17T16:04:16.859Z,6.71
2022-11-17T16:06:48.962Z,6.74
2022-11-17T16:09:23.389Z,6.71
2022-11-17T16:13:09.248Z,6.69
2022-11-17T16:16:27.529Z,6.71
2022-11-17T16:19:58.635Z,6.71
2022-11-17T16:23:46.585Z,6.64
2022-11-17T16:29:44.204Z,6.80
2022-11-17T16:32:16.101Z,6.83
2022-11-17T16:34:49.832Z,6.80
2022-11-17T16:37:21.599Z,6.76
2022-11-17T16:39:53.691Z,6.84
2022-11-17T16:42:26.154Z,6.85
2022-11-17T16:44:57.930Z,6.88
2022-11-17T16:47:30.139Z,6.89
2022-11-17T16:50:03.622Z,6.86
2022-11-17T16:52:36.340Z,6.88
2022-11-17T16:55:09.547Z,6.89
2022-11-17T16:57:41.576Z,6.88
2022-11-17T17:00:18.460Z,6.88
2022-11-17T17:02:52.447Z,6.89
2022-11-17T17:05:24.460Z,6.81
2022-11-17T17:07:56.661Z,6.73
2022-11-17T17:10:28.575Z,6.76
2022-11-17T17:13:00.674Z,6.77
2022-11-17T17:15:33.741Z,6.89
2022-11-17T17:18:06.224Z,6.80
2022-11-17T17:20:38.324Z,6.75
2022-11-17T17:23:10.107Z,6.64
2022-11-17T17:25:41.834Z,6.57
2022-11-17T17:28:13.907Z,6.58
2022-11-17T17:30:53.814Z,6.47
2022-11-17T17:33:25.648Z,6.56
2022-11-17T17:36:01.883Z,6.58
2022-11-17T17:38:34.142Z,6.57
2022-11-17T17:41:10.748Z,6.54
2022-11-17T17:43:43.905Z,6.54
2022-11-17T17:46:17.458Z,6.42
2022-11-17T17:48:49.578Z,6.48
2022-11-17T17:51:24.048Z,6.54
2022-11-17T17:53:58.337Z,6.54
2022-11-17T17:56:31.452Z,6.63
2022-11-17T17:59:03.340Z,6.59
2022-11-17T18:01:37.406Z,6.65
2022-11-17T18:04:15.278Z,6.66
2022-11-17T18:06:48.911Z,6.58
2022-11-17T18:09:21.137Z,6.65
2022-11-17T18:11:53.056Z,6.53
2022-11-17T18:14:25.161Z,6.50
2022-11-17T18:16:57.117Z,6.56
2022-11-17T18:19:33.220Z,6.54
2022-11-17T18:22:05.252Z,6.55
2022-11-17T18:24:36.951Z,6.55
2022-11-17T18:27:09.039Z,6.58
2022-11-17T18:29:40.800Z,6.59
2022-11-17T18:32:12.551Z,6.61
2022-11-17T18:34:44.519Z,6.63
2022-11-17T18:37:16.682Z,6.60
2022-11-17T18:39:48.824Z,6.59
2022-11-17T18:42:20.553Z,6.55
2022-11-17T18:44:52.455Z,6.52
2022-11-17T18:47:24.201Z,6.47
2022-11-17T18:49:56.495Z,6.46
2022-11-17T18:52:31.391Z,6.51
2022-11-17T18:55:03.806Z,6.52
2022-11-17T18:57:35.585Z,6.50
2022-11-17T19:00:09.696Z,6.56
2022-11-17T19:02:41.592Z,6.56
2022-11-17T19:05:13.490Z,6.52
2022-11-17T19:07:45.229Z,6.51
2022-11-17T19:10:17.780Z,6.37
2022-11-17T19:12:49.466Z,6.30
2022-11-17T19:15:21.466Z,6.29
2022-11-17T19:17:53.339Z,6.43
2022-11-17T19:20:27.381Z,6.32
2022-11-17T19:22:59.194Z,6.33
2022-11-17T19:25:41.038Z,6.34
2022-11-17T19:28:15.643Z,6.35
2022-11-17T19:30:47.453Z,6.40
2022-11-17T19:33:19.186Z,6.35
2022-11-17T19:35:51.508Z,6.29
2022-11-17T19:38:23.229Z,6.29
2022-11-17T19:40:55.124Z,6.23
2022-11-17T19:43:26.931Z,6.22
2022-11-17T19:46:01.677Z,6.36
2022-11-17T19:48:33.947Z,6.29
2022-11-17T19:51:15.763Z,6.33
2022-11-17T19:53:47.989Z,6.31
2022-11-17T19:56:21.143Z,6.27
2022-11-17T19:58:53.844Z,6.34
2022-11-17T20:01:27.984Z,6.35
2022-11-17T20:04:01.475Z,6.38
2022-11-17T20:06:37.765Z,6.30
2022-11-17T20:09:11.169Z,6.20
2022-11-17T20:11:43.554Z,6.26
2022-11-17T20:14:15.463Z,6.22
2022-11-17T20:16:47.348Z,6.27
2022-11-17T20:19:19.253Z,6.28
2022-11-17T20:21:51.581Z,6.26
2022-11-17T20:24:23.441Z,6.22
2022-11-17T20:26:55.285Z,6.28
2022-11-17T20:29:27.133Z,6.22
2022-11-17T20:31:58.926Z,6.26
2022-11-17T20:34:31.601Z,6.21
2022-11-17T20:37:03.961Z,6.25
2022-11-17T20:39:35.801Z,6.16
2022-11-17T20:42:08.125Z,6.17
2022-11-17T20:44:39.920Z,6.15
2022-11-17T20:47:12.286Z,6.23
2022-11-17T20:49:44.854Z,6.03
2022-11-17T20:52:17.657Z,6.04
2022-11-17T20:54:49.639Z,6.15
2022-11-17T20:57:22.089Z,6.21
2022-11-17T20:59:54.309Z,6.22
2022-11-17T21:02:26.654Z,6.23
2022-11-17T21:04:58.758Z,6.22
2022-11-17T21:07:30.876Z,6.23
2022-11-17T21:10:02.923Z,6.13
2022-11-17T21:12:34.825Z,6.20
2022-11-17T21:15:08.199Z,6.21
2022-11-17T21:17:58.036Z,6.21
2022-11-17T21:20:30.036Z,6.20
2022-11-17T21:23:02.301Z,6.26
2022-11-17T21:25:36.122Z,6.26
2022-11-17T21:28:08.354Z,6.15
2022-11-17T21:30:40.228Z,6.16
2022-11-17T21:33:12.164Z,6.13
2022-11-17T21:35:43.904Z,6.01
2022-11-17T21:38:15.829Z,6.06
2022-11-17T21:40:47.697Z,5.99
2022-11-17T21:43:19.583Z,6.01
2022-11-17T21:45:51.348Z,6.10
2022-11-17T21:48:23.231Z,6.14
2022-11-17T21:50:55.768Z,6.12
2022-11-17T21:53:28.498Z,6.12
2022-11-17T21:56:04.067Z,5.89
2022-11-17T21:58:36.191Z,6.00
2022-11-17T22:01:12.879Z,6.00
2022-11-17T22:03:45.377Z,6.00
2022-11-17T22:06:19.026Z,5.96
2022-11-17T22:08:51.655Z,5.96
2022-11-17T22:11:36.493Z,5.98
2022-11-17T22:14:11.246Z,6.00
2022-11-17T22:16:44.483Z,5.95
2022-11-17T22:19:18.188Z,6.02
2022-11-17T22:21:52.633Z,6.01
2022-11-17T22:24:24.833Z,5.85
2022-11-17T22:26:56.788Z,5.94
2022-11-17T22:29:28.668Z,5.93
2022-11-17T22:32:00.466Z,5.98
2022-11-17T22:34:32.402Z,5.92
2022-11-17T22:37:04.435Z,5.83
2022-11-17T22:39:36.311Z,5.88
2022-11-17T22:42:08.580Z,5.95
2022-11-17T22:44:40.442Z,5.94
2022-11-17T22:47:12.211Z,5.98
2022-11-17T22:49:44.143Z,5.88
2022-11-17T22:52:15.858Z,5.90
2022-11-17T22:54:47.986Z,5.88
2022-11-17T22:57:19.794Z,5.91
2022-11-17T23:10:41.215Z,5.77
2022-11-17T23:13:44.659Z,5.71
2022-11-17T23:16:25.298Z,5.82
2022-11-17T23:19:37.418Z,5.93
2022-11-17T23:22:11.849Z,5.82
2022-11-17T23:24:43.739Z,5.89
2022-11-17T23:27:15.840Z,5.94
2022-11-17T23:29:47.875Z,5.84
2022-11-17T23:32:19.790Z,5.87
2022-11-17T23:34:51.716Z,5.90
2022-11-17T23:37:23.615Z,5.83
2022-11-17T23:39:55.511Z,5.74
2022-11-17T23:42:31.497Z,5.52
2022-11-17T23:45:04.890Z,5.69
2022-11-17T23:47:36.586Z,5.73
2022-11-17T23:50:09.901Z,5.73
2022-11-17T23:52:41.791Z,5.73
2022-11-17T23:55:14.292Z,5.74
2022-11-17T23:57:46.465Z,5.68
